sensor_id;sensor_type;location;lat;lon;timestamp;pressure;altitude;pressure_sealevel;temperature;humidity
24666;BME280;29726;53.532;-1.478;2024-02-21T00:02:26;100588.16;;;13.93;100.00
24666;BME280;29726;53.532;-1.478;2024-02-21T00:05:11;100548.13;;;13.78;100.00
24666;BME280;29726;53.532;-1.478;2024-02-21T00:07:55;100563.59;;;13.88;100.00
24666;BME280;29726;53.532;-1.478;2024-02-21T00:10:39;100570.50;;;13.87;100.00
24666;BME280;29726;53.532;-1.478;2024-02-21T00:13:23;100561.69;;;13.80;100.00
24666;BME280;29726;53.532;-1.478;2024-02-21T00:16:07;100575.53;;;13.83;100.00
24666;BME280;29726;53.532;-1.478;2024-02-21T00:18:51;100570.25;;;13.71;100.00
24666;BME280;29726;53.532;-1.478;2024-02-21T00:21:35;100572.81;;;13.74;100.00
24666;BME280;29726;53.532;-1.478;2024-02-21T00:24:21;100564.41;;;13.74;100.00
24666;BME280;29726;53.532;-1.478;2024-02-21T00:27:05;100534.84;;;13.59;100.00
24666;BME280;29726;53.532;-1.478;2024-02-21T00:29:50;100540.84;;;13.66;100.00
24666;BME280;29726;53.532;-1.478;2024-02-21T00:32:34;100541.59;;;13.67;100.00
24666;BME280;29726;53.532;-1.478;2024-02-21T00:35:18;100533.88;;;13.62;100.00
24666;BME280;29726;53.532;-1.478;2024-02-21T00:38:02;100541.25;;;13.59;100.00
24666;BME280;29726;53.532;-1.478;2024-02-21T00:40:47;100550.13;;;13.58;100.00
24666;BME280;29726;53.532;-1.478;2024-02-21T00:43:31;100539.09;;;13.54;100.00
24666;BME280;29726;53.532;-1.478;2024-02-21T00:46:15;100529.94;;;13.54;100.00
24666;BME280;29726;53.532;-1.478;2024-02-21T00:48:59;100536.03;;;13.52;100.00
24666;BME280;29726;53.532;-1.478;2024-02-21T00:51:47;100531.38;;;13.49;100.00
24666;BME280;29726;53.532;-1.478;2024-02-21T00:54:31;100533.16;;;13.47;100.00
24666;BME280;29726;53.532;-1.478;2024-02-21T00:57:15;100534.41;;;13.46;100.00
24666;BME280;29726;53.532;-1.478;2024-02-21T00:59:59;100526.19;;;13.42;100.00
24666;BME280;29726;53.532;-1.478;2024-02-21T01:02:43;100509.09;;;13.40;100.00
24666;BME280;29726;53.532;-1.478;2024-02-21T01:05:27;100491.47;;;13.40;100.00
24666;BME280;29726;53.532;-1.478;2024-02-21T01:08:13;100489.84;;;13.33;100.00
24666;BME280;29726;53.532;-1.478;2024-02-21T01:10:57;100520.19;;;13.35;100.00
24666;BME280;29726;53.532;-1.478;2024-02-21T01:13:41;100520.69;;;13.33;100.00
24666;BME280;29726;53.532;-1.478;2024-02-21T01:16:26;100503.28;;;13.29;100.00
24666;BME280;29726;53.532;-1.478;2024-02-21T01:19:10;100494.88;;;13.29;100.00
24666;BME280;29726;53.532;-1.478;2024-02-21T01:21:54;100487.94;;;13.25;100.00
24666;BME280;29726;53.532;-1.478;2024-02-21T01:24:38;100476.72;;;13.25;100.00
24666;BME280;29726;53.532;-1.478;2024-02-21T01:27:22;100475.19;;;13.24;100.00
24666;BME280;29726;53.532;-1.478;2024-02-21T01:30:07;100471.31;;;13.22;100.00
24666;BME280;29726;53.532;-1.478;2024-02-21T01:32:51;100459.31;;;13.21;100.00
24666;BME280;29726;53.532;-1.478;2024-02-21T01:35:36;100459.25;;;13.16;100.00
24666;BME280;29726;53.532;-1.478;2024-02-21T01:38:21;100454.69;;;13.18;100.00
24666;BME280;29726;53.532;-1.478;2024-02-21T01:41:05;100446.78;;;13.17;100.00
24666;BME280;29726;53.532;-1.478;2024-02-21T01:43:49;100423.78;;;13.13;100.00
24666;BME280;29726;53.532;-1.478;2024-02-21T01:46:32;100411.78;;;13.12;100.00
24666;BME280;29726;53.532;-1.478;2024-02-21T01:49:19;100382.22;;;13.11;100.00
24666;BME280;29726;53.532;-1.478;2024-02-21T01:52:03;100379.13;;;13.09;100.00
24666;BME280;29726;53.532;-1.478;2024-02-21T01:54:47;100375.00;;;13.05;100.00
24666;BME280;29726;53.532;-1.478;2024-02-21T01:57:32;100375.28;;;13.07;100.00
24666;BME280;29726;53.532;-1.478;2024-02-21T02:00:16;100369.38;;;13.05;100.00
24666;BME280;29726;53.532;-1.478;2024-02-21T02:03:01;100370.63;;;13.04;100.00
24666;BME280;29726;53.532;-1.478;2024-02-21T02:05:49;100354.63;;;13.04;100.00
24666;BME280;29726;53.532;-1.478;2024-02-21T02:08:33;100350.94;;;12.98;100.00
24666;BME280;29726;53.532;-1.478;2024-02-21T02:11:18;100355.28;;;12.99;100.00
24666;BME280;29726;53.532;-1.478;2024-02-21T02:14:02;100332.81;;;12.94;100.00
24666;BME280;29726;53.532;-1.478;2024-02-21T02:16:47;100337.72;;;12.99;100.00
24666;BME280;29726;53.532;-1.478;2024-02-21T02:19:33;100318.28;;;12.95;100.00
24666;BME280;29726;53.532;-1.478;2024-02-21T02:22:22;100326.22;;;12.97;100.00
24666;BME280;29726;53.532;-1.478;2024-02-21T02:25:07;100318.00;;;12.93;100.00
24666;BME280;29726;53.532;-1.478;2024-02-21T02:27:51;100310.38;;;12.94;100.00
24666;BME280;29726;53.532;-1.478;2024-02-21T02:30:36;100302.66;;;12.89;100.00
24666;BME280;29726;53.532;-1.478;2024-02-21T02:33:20;100301.41;;;12.90;100.00
24666;BME280;29726;53.532;-1.478;2024-02-21T02:36:04;100311.34;;;12.91;100.00
24666;BME280;29726;53.532;-1.478;2024-02-21T02:38:48;100297.06;;;12.89;100.00
24666;BME280;29726;53.532;-1.478;2024-02-21T02:41:35;100287.88;;;12.88;100.00
24666;BME280;29726;53.532;-1.478;2024-02-21T02:44:20;100296.06;;;12.92;100.00
24666;BME280;29726;53.532;-1.478;2024-02-21T02:47:04;100270.25;;;12.88;100.00
24666;BME280;29726;53.532;-1.478;2024-02-21T02:49:48;100251.00;;;12.75;100.00
24666;BME280;29726;53.532;-1.478;2024-02-21T02:52:34;100257.53;;;12.87;100.00
24666;BME280;29726;53.532;-1.478;2024-02-21T02:55:18;100244.03;;;12.85;100.00
24666;BME280;29726;53.532;-1.478;2024-02-21T02:58:03;100224.69;;;12.87;100.00
24666;BME280;29726;53.532;-1.478;2024-02-21T03:00:47;100206.81;;;12.85;100.00
24666;BME280;29726;53.532;-1.478;2024-02-21T03:03:31;100202.00;;;12.85;100.00
24666;BME280;29726;53.532;-1.478;2024-02-21T03:06:15;100169.50;;;12.73;100.00
24666;BME280;29726;53.532;-1.478;2024-02-21T03:08:59;100181.88;;;12.87;100.00
24666;BME280;29726;53.532;-1.478;2024-02-21T03:11:43;100173.47;;;12.87;100.00
24666;BME280;29726;53.532;-1.478;2024-02-21T03:14:28;100156.91;;;12.83;100.00
24666;BME280;29726;53.532;-1.478;2024-02-21T03:17:13;100140.84;;;12.84;100.00
24666;BME280;29726;53.532;-1.478;2024-02-21T03:19:57;100140.66;;;12.87;100.00
24666;BME280;29726;53.532;-1.478;2024-02-21T03:22:41;100106.84;;;12.71;100.00
24666;BME280;29726;53.532;-1.478;2024-02-21T03:25:25;100112.56;;;12.82;100.00
24666;BME280;29726;53.532;-1.478;2024-02-21T03:28:09;100110.03;;;12.84;100.00
24666;BME280;29726;53.532;-1.478;2024-02-21T03:30:52;100100.38;;;12.85;100.00
24666;BME280;29726;53.532;-1.478;2024-02-21T03:33:37;100085.59;;;12.84;100.00
24666;BME280;29726;53.532;-1.478;2024-02-21T03:36:21;100077.97;;;12.85;100.00
24666;BME280;29726;53.532;-1.478;2024-02-21T03:39:05;100062.69;;;12.86;100.00
24666;BME280;29726;53.532;-1.478;2024-02-21T03:41:49;100056.31;;;12.85;100.00
24666;BME280;29726;53.532;-1.478;2024-02-21T03:44:33;100050.72;;;12.85;100.00
24666;BME280;29726;53.532;-1.478;2024-02-21T03:47:17;100047.94;;;12.85;100.00
24666;BME280;29726;53.532;-1.478;2024-02-21T03:50:01;100026.78;;;12.84;100.00
24666;BME280;29726;53.532;-1.478;2024-02-21T03:52:45;100012.50;;;12.82;100.00
24666;BME280;29726;53.532;-1.478;2024-02-21T03:55:29;100012.25;;;12.86;100.00
24666;BME280;29726;53.532;-1.478;2024-02-21T03:58:13;100003.38;;;12.87;100.00
24666;BME280;29726;53.532;-1.478;2024-02-21T04:01:00;99989.63;;;12.89;100.00
24666;BME280;29726;53.532;-1.478;2024-02-21T04:03:44;99978.66;;;12.86;100.00
24666;BME280;29726;53.532;-1.478;2024-02-21T04:06:29;99971.03;;;12.86;100.00
24666;BME280;29726;53.532;-1.478;2024-02-21T04:09:13;99963.09;;;12.85;100.00
24666;BME280;29726;53.532;-1.478;2024-02-21T04:11:57;99959.59;;;12.90;100.00
24666;BME280;29726;53.532;-1.478;2024-02-21T04:14:41;99953.72;;;12.88;100.00
24666;BME280;29726;53.532;-1.478;2024-02-21T04:17:24;99961.63;;;12.89;100.00
24666;BME280;29726;53.532;-1.478;2024-02-21T04:20:15;99958.06;;;12.89;100.00
24666;BME280;29726;53.532;-1.478;2024-02-21T04:22:59;99948.09;;;12.88;100.00
24666;BME280;29726;53.532;-1.478;2024-02-21T04:25:44;99944.34;;;12.91;100.00
24666;BME280;29726;53.532;-1.478;2024-02-21T04:28:28;99942.50;;;12.88;100.00
24666;BME280;29726;53.532;-1.478;2024-02-21T04:31:11;99918.56;;;12.87;100.00
24666;BME280;29726;53.532;-1.478;2024-02-21T04:33:56;99921.66;;;12.89;100.00
24666;BME280;29726;53.532;-1.478;2024-02-21T04:36:40;99927.53;;;12.91;100.00
24666;BME280;29726;53.532;-1.478;2024-02-21T04:39:25;99913.53;;;12.91;100.00
24666;BME280;29726;53.532;-1.478;2024-02-21T04:42:09;99895.44;;;12.92;100.00
24666;BME280;29726;53.532;-1.478;2024-02-21T04:44:53;99891.09;;;12.91;100.00
24666;BME280;29726;53.532;-1.478;2024-02-21T04:47:37;99877.59;;;12.89;100.00
24666;BME280;29726;53.532;-1.478;2024-02-21T04:50:21;99863.09;;;12.91;100.00
24666;BME280;29726;53.532;-1.478;2024-02-21T04:53:05;99856.72;;;12.90;100.00
24666;BME280;29726;53.532;-1.478;2024-02-21T04:55:49;99847.25;;;12.88;100.00
24666;BME280;29726;53.532;-1.478;2024-02-21T04:58:37;99841.72;;;12.93;100.00
24666;BME280;29726;53.532;-1.478;2024-02-21T05:01:21;99820.84;;;12.94;100.00
24666;BME280;29726;53.532;-1.478;2024-02-21T05:04:06;99818.84;;;12.95;100.00
24666;BME280;29726;53.532;-1.478;2024-02-21T05:06:49;99783.81;;;12.79;100.00
24666;BME280;29726;53.532;-1.478;2024-02-21T05:09:34;99790.56;;;12.93;100.00
24666;BME280;29726;53.532;-1.478;2024-02-21T05:12:17;99773.75;;;12.93;100.00
24666;BME280;29726;53.532;-1.478;2024-02-21T05:15:02;99778.59;;;12.98;100.00
24666;BME280;29726;53.532;-1.478;2024-02-21T05:17:46;99762.53;;;12.93;100.00
24666;BME280;29726;53.532;-1.478;2024-02-21T05:20:30;99750.81;;;12.94;100.00
24666;BME280;29726;53.532;-1.478;2024-02-21T05:23:14;99739.63;;;12.94;100.00
24666;BME280;29726;53.532;-1.478;2024-02-21T05:25:58;99743.94;;;12.95;100.00
24666;BME280;29726;53.532;-1.478;2024-02-21T05:28:41;99730.19;;;12.97;100.00
24666;BME280;29726;53.532;-1.478;2024-02-21T05:31:26;99721.03;;;12.97;100.00
24666;BME280;29726;53.532;-1.478;2024-02-21T05:34:11;99719.50;;;12.96;100.00
24666;BME280;29726;53.532;-1.478;2024-02-21T05:36:55;99702.72;;;12.96;100.00
24666;BME280;29726;53.532;-1.478;2024-02-21T05:39:39;99696.31;;;12.95;100.00
24666;BME280;29726;53.532;-1.478;2024-02-21T05:42:23;99673.91;;;12.95;100.00
24666;BME280;29726;53.532;-1.478;2024-02-21T05:45:07;99651.25;;;12.93;100.00
24666;BME280;29726;53.532;-1.478;2024-02-21T05:47:51;99638.72;;;12.83;100.00
24666;BME280;29726;53.532;-1.478;2024-02-21T05:50:35;99649.47;;;12.96;100.00
24666;BME280;29726;53.532;-1.478;2024-02-21T05:53:19;99632.63;;;12.90;100.00
24666;BME280;29726;53.532;-1.478;2024-02-21T05:56:03;99634.69;;;12.95;100.00
24666;BME280;29726;53.532;-1.478;2024-02-21T05:58:48;99614.75;;;12.88;100.00
24666;BME280;29726;53.532;-1.478;2024-02-21T06:01:32;99615.09;;;12.95;100.00
24666;BME280;29726;53.532;-1.478;2024-02-21T06:04:16;99610.00;;;12.94;100.00
24666;BME280;29726;53.532;-1.478;2024-02-21T06:07:00;99593.44;;;12.96;100.00
24666;BME280;29726;53.532;-1.478;2024-02-21T06:09:45;99587.06;;;12.95;100.00
24666;BME280;29726;53.532;-1.478;2024-02-21T06:12:29;99570.50;;;12.92;100.00
24666;BME280;29726;53.532;-1.478;2024-02-21T06:15:13;99564.66;;;12.95;100.00
24666;BME280;29726;53.532;-1.478;2024-02-21T06:17:57;99569.50;;;12.95;100.00
24666;BME280;29726;53.532;-1.478;2024-02-21T06:20:40;99548.38;;;12.94;100.00
24666;BME280;29726;53.532;-1.478;2024-02-21T06:23:25;99557.03;;;12.96;100.00
24666;BME280;29726;53.532;-1.478;2024-02-21T06:26:09;99556.25;;;12.95;100.00
24666;BME280;29726;53.532;-1.478;2024-02-21T06:28:53;99552.44;;;12.93;100.00
24666;BME280;29726;53.532;-1.478;2024-02-21T06:31:37;99548.63;;;12.96;100.00
24666;BME280;29726;53.532;-1.478;2024-02-21T06:34:21;99530.03;;;12.93;100.00
24666;BME280;29726;53.532;-1.478;2024-02-21T06:37:05;99531.56;;;12.94;100.00
24666;BME280;29726;53.532;-1.478;2024-02-21T06:39:49;99531.56;;;12.94;100.00
24666;BME280;29726;53.532;-1.478;2024-02-21T06:42:33;99518.31;;;12.94;100.00
24666;BME280;29726;53.532;-1.478;2024-02-21T06:45:17;99509.91;;;12.94;100.00
24666;BME280;29726;53.532;-1.478;2024-02-21T06:48:02;99513.75;;;12.97;100.00
24666;BME280;29726;53.532;-1.478;2024-02-21T06:50:45;99503.81;;;12.96;100.00
24666;BME280;29726;53.532;-1.478;2024-02-21T06:53:30;99475.25;;;12.92;100.00
24666;BME280;29726;53.532;-1.478;2024-02-21T06:56:14;99474.47;;;12.91;100.00
24666;BME280;29726;53.532;-1.478;2024-02-21T06:58:58;99463.56;;;12.93;100.00
24666;BME280;29726;53.532;-1.478;2024-02-21T07:01:47;99436.81;;;12.92;100.00
24666;BME280;29726;53.532;-1.478;2024-02-21T07:04:32;99444.19;;;12.95;100.00
24666;BME280;29726;53.532;-1.478;2024-02-21T07:07:16;99418.00;;;12.93;100.00
24666;BME280;29726;53.532;-1.478;2024-02-21T07:10:00;99411.34;;;12.90;100.00
24666;BME280;29726;53.532;-1.478;2024-02-21T07:12:44;99407.53;;;12.93;100.00
24666;BME280;29726;53.532;-1.478;2024-02-21T07:15:28;99394.03;;;12.92;100.00
24666;BME280;29726;53.532;-1.478;2024-02-21T07:18:14;99386.38;;;12.87;100.00
24666;BME280;29726;53.532;-1.478;2024-02-21T07:20:58;99373.38;;;12.89;100.00
24666;BME280;29726;53.532;-1.478;2024-02-21T07:23:42;99357.63;;;12.86;100.00
24666;BME280;29726;53.532;-1.478;2024-02-21T07:26:26;99368.56;;;12.90;100.00
24666;BME280;29726;53.532;-1.478;2024-02-21T07:29:10;99351.75;;;12.90;100.00
24666;BME280;29726;53.532;-1.478;2024-02-21T07:31:54;99337.75;;;12.90;100.00
24666;BME280;29726;53.532;-1.478;2024-02-21T07:34:38;99334.44;;;12.86;100.00
24666;BME280;29726;53.532;-1.478;2024-02-21T07:37:22;99342.59;;;12.84;100.00
24666;BME280;29726;53.532;-1.478;2024-02-21T07:40:06;99340.03;;;12.86;100.00
24666;BME280;29726;53.532;-1.478;2024-02-21T07:42:55;99312.56;;;12.84;100.00
24666;BME280;29726;53.532;-1.478;2024-02-21T07:45:39;99301.34;;;12.84;100.00
24666;BME280;29726;53.532;-1.478;2024-02-21T07:48:24;99297.28;;;12.80;100.00
24666;BME280;29726;53.532;-1.478;2024-02-21T07:51:11;99289.91;;;12.82;100.00
24666;BME280;29726;53.532;-1.478;2024-02-21T07:53:55;99299.81;;;12.83;100.00
24666;BME280;29726;53.532;-1.478;2024-02-21T07:56:39;99289.66;;;12.80;100.00
24666;BME280;29726;53.532;-1.478;2024-02-21T07:59:23;99262.16;;;12.79;100.00
24666;BME280;29726;53.532;-1.478;2024-02-21T08:02:07;99273.88;;;12.77;100.00
24666;BME280;29726;53.532;-1.478;2024-02-21T08:04:51;99263.66;;;12.80;100.00
24666;BME280;29726;53.532;-1.478;2024-02-21T08:07:35;99238.22;;;12.78;100.00
24666;BME280;29726;53.532;-1.478;2024-02-21T08:10:19;99231.88;;;12.72;100.00
24666;BME280;29726;53.532;-1.478;2024-02-21T08:13:03;99233.66;;;12.75;100.00
24666;BME280;29726;53.532;-1.478;2024-02-21T08:15:47;99220.16;;;12.73;100.00
24666;BME280;29726;53.532;-1.478;2024-02-21T08:18:31;99214.53;;;12.73;100.00
24666;BME280;29726;53.532;-1.478;2024-02-21T08:21:15;99197.25;;;12.69;100.00
24666;BME280;29726;53.532;-1.478;2024-02-21T08:24:00;99199.03;;;12.72;100.00
24666;BME280;29726;53.532;-1.478;2024-02-21T08:26:44;99199.56;;;12.71;100.00
24666;BME280;29726;53.532;-1.478;2024-02-21T08:29:28;99183.53;;;12.66;100.00
24666;BME280;29726;53.532;-1.478;2024-02-21T08:32:12;99180.75;;;12.66;100.00
24666;BME280;29726;53.532;-1.478;2024-02-21T08:34:56;99169.25;;;12.69;100.00
24666;BME280;29726;53.532;-1.478;2024-02-21T08:37:41;99160.38;;;12.65;100.00
24666;BME280;29726;53.532;-1.478;2024-02-21T08:40:27;99143.56;;;12.65;100.00
24666;BME280;29726;53.532;-1.478;2024-02-21T08:43:11;99136.19;;;12.62;100.00
24666;BME280;29726;53.532;-1.478;2024-02-21T08:45:55;99135.16;;;12.65;100.00
24666;BME280;29726;53.532;-1.478;2024-02-21T08:48:39;99135.94;;;12.66;100.00
24666;BME280;29726;53.532;-1.478;2024-02-21T08:51:23;99107.97;;;12.60;100.00
24666;BME280;29726;53.532;-1.478;2024-02-21T08:54:07;99105.66;;;12.64;100.00
24666;BME280;29726;53.532;-1.478;2024-02-21T08:56:51;99086.56;;;12.63;100.00
24666;BME280;29726;53.532;-1.478;2024-02-21T08:59:35;99079.44;;;12.62;100.00
24666;BME280;29726;53.532;-1.478;2024-02-21T09:02:19;99059.59;;;12.60;100.00
24666;BME280;29726;53.532;-1.478;2024-02-21T09:05:03;99055.03;;;12.62;100.00
24666;BME280;29726;53.532;-1.478;2024-02-21T09:07:49;99046.63;;;12.62;100.00
24666;BME280;29726;53.532;-1.478;2024-02-21T09:10:33;99052.72;;;12.61;100.00
24666;BME280;29726;53.532;-1.478;2024-02-21T09:13:17;99026.78;;;12.60;100.00
24666;BME280;29726;53.532;-1.478;2024-02-21T09:16:01;99007.94;;;12.61;100.00
24666;BME280;29726;53.532;-1.478;2024-02-21T09:18:45;98979.00;;;12.47;100.00
24666;BME280;29726;53.532;-1.478;2024-02-21T09:21:30;99001.84;;;12.62;100.00
24666;BME280;29726;53.532;-1.478;2024-02-21T09:24:14;98996.75;;;12.61;100.00
24666;BME280;29726;53.532;-1.478;2024-02-21T09:26:58;98995.75;;;12.58;100.00
24666;BME280;29726;53.532;-1.478;2024-02-21T09:29:43;98983.50;;;12.61;100.00
24666;BME280;29726;53.532;-1.478;2024-02-21T09:32:28;98964.97;;;12.58;100.00
24666;BME280;29726;53.532;-1.478;2024-02-21T09:35:12;98939.53;;;12.56;100.00
24666;BME280;29726;53.532;-1.478;2024-02-21T09:37:56;98931.38;;;12.58;100.00
24666;BME280;29726;53.532;-1.478;2024-02-21T09:40:40;98937.44;;;12.62;100.00
24666;BME280;29726;53.532;-1.478;2024-02-21T09:43:26;98913.53;;;12.61;100.00
24666;BME280;29726;53.532;-1.478;2024-02-21T09:46:16;98885.53;;;12.61;100.00
24666;BME280;29726;53.532;-1.478;2024-02-21T09:51:57;98870.78;;;12.61;100.00
24666;BME280;29726;53.532;-1.478;2024-02-21T09:54:44;98860.84;;;12.60;100.00
24666;BME280;29726;53.532;-1.478;2024-02-21T09:57:28;98842.28;;;12.62;100.00
24666;BME280;29726;53.532;-1.478;2024-02-21T10:00:13;98840.28;;;12.57;100.00
24666;BME280;29726;53.532;-1.478;2024-02-21T10:03:05;98842.78;;;12.61;100.00
24666;BME280;29726;53.532;-1.478;2024-02-21T10:05:52;98837.19;;;12.61;100.00
24666;BME280;29726;53.532;-1.478;2024-02-21T10:08:36;98819.41;;;12.58;100.00
24666;BME280;29726;53.532;-1.478;2024-02-21T10:11:24;98817.31;;;12.64;100.00
24666;BME280;29726;53.532;-1.478;2024-02-21T10:14:08;98790.38;;;12.61;100.00
24666;BME280;29726;53.532;-1.478;2024-02-21T10:16:58;98769.22;;;12.66;100.00
24666;BME280;29726;53.532;-1.478;2024-02-21T10:19:46;98787.53;;;12.67;100.00
24666;BME280;29726;53.532;-1.478;2024-02-21T10:22:31;98753.94;;;12.67;100.00
24666;BME280;29726;53.532;-1.478;2024-02-21T10:25:20;98750.34;;;12.66;100.00
24666;BME280;29726;53.532;-1.478;2024-02-21T10:28:04;98740.91;;;12.69;100.00
24666;BME280;29726;53.532;-1.478;2024-02-21T10:30:50;98720.03;;;12.70;100.00
24666;BME280;29726;53.532;-1.478;2024-02-21T10:33:35;98712.19;;;12.69;100.00
24666;BME280;29726;53.532;-1.478;2024-02-21T10:36:19;98711.94;;;12.67;100.00
24666;BME280;29726;53.532;-1.478;2024-02-21T10:39:03;98703.78;;;12.69;100.00
24666;BME280;29726;53.532;-1.478;2024-02-21T10:41:47;98702.94;;;12.74;100.00
24666;BME280;29726;53.532;-1.478;2024-02-21T10:44:32;98705.47;;;12.77;100.00
24666;BME280;29726;53.532;-1.478;2024-02-21T10:47:17;98680.31;;;12.72;100.00
24666;BME280;29726;53.532;-1.478;2024-02-21T10:50:06;98673.16;;;12.76;100.00
24666;BME280;29726;53.532;-1.478;2024-02-21T10:52:56;98669.31;;;12.79;100.00
24666;BME280;29726;53.532;-1.478;2024-02-21T10:55:55;98651.28;;;12.75;100.00
24666;BME280;29726;53.532;-1.478;2024-02-21T10:58:41;98647.41;;;12.78;100.00
24666;BME280;29726;53.532;-1.478;2024-02-21T11:01:26;98638.72;;;12.81;100.00
24666;BME280;29726;53.532;-1.478;2024-02-21T11:04:12;98625.69;;;12.84;100.00
24666;BME280;29726;53.532;-1.478;2024-02-21T11:06:57;98622.91;;;12.84;100.00
24666;BME280;29726;53.532;-1.478;2024-02-21T11:09:50;98611.91;;;12.86;100.00
24666;BME280;29726;53.532;-1.478;2024-02-21T11:12:35;98611.69;;;12.84;100.00
24666;BME280;29726;53.532;-1.478;2024-02-21T11:15:25;98605.88;;;12.82;100.00
24666;BME280;29726;53.532;-1.478;2024-02-21T11:18:09;98596.63;;;12.87;100.00
24666;BME280;29726;53.532;-1.478;2024-02-21T11:20:53;98606.25;;;12.91;100.00
24666;BME280;29726;53.532;-1.478;2024-02-21T11:23:37;98585.22;;;12.85;100.00
24666;BME280;29726;53.532;-1.478;2024-02-21T11:26:21;98594.78;;;12.95;100.00
24666;BME280;29726;53.532;-1.478;2024-02-21T11:29:04;98577.03;;;12.87;100.00
24666;BME280;29726;53.532;-1.478;2024-02-21T11:31:49;98573.44;;;12.92;100.00
24666;BME280;29726;53.532;-1.478;2024-02-21T11:34:34;98556.09;;;12.93;100.00
24666;BME280;29726;53.532;-1.478;2024-02-21T11:37:17;98544.44;;;12.89;100.00
24666;BME280;29726;53.532;-1.478;2024-02-21T11:40:01;98555.81;;;12.97;100.00
24666;BME280;29726;53.532;-1.478;2024-02-21T11:42:47;98554.53;;;12.98;100.00
24666;BME280;29726;53.532;-1.478;2024-02-21T11:45:31;98526.50;;;12.98;100.00
24666;BME280;29726;53.532;-1.478;2024-02-21T11:48:16;98528.03;;;12.99;100.00
24666;BME280;29726;53.532;-1.478;2024-02-21T11:51:00;98500.03;;;12.99;100.00
24666;BME280;29726;53.532;-1.478;2024-02-21T11:53:44;98514.03;;;12.99;100.00
24666;BME280;29726;53.532;-1.478;2024-02-21T11:56:28;98495.16;;;12.99;100.00
24666;BME280;29726;53.532;-1.478;2024-02-21T11:59:12;98481.63;;;13.03;100.00
24666;BME280;29726;53.532;-1.478;2024-02-21T12:01:58;98477.53;;;13.04;100.00
24666;BME280;29726;53.532;-1.478;2024-02-21T12:04:43;98449.31;;;13.02;100.00
24666;BME280;29726;53.532;-1.478;2024-02-21T12:07:27;98461.25;;;13.03;100.00
24666;BME280;29726;53.532;-1.478;2024-02-21T12:10:13;98442.84;;;13.07;100.00
24666;BME280;29726;53.532;-1.478;2024-02-21T12:13:07;98436.47;;;13.07;100.00
24666;BME280;29726;53.532;-1.478;2024-02-21T12:15:52;98435.19;;;13.08;100.00
24666;BME280;29726;53.532;-1.478;2024-02-21T12:18:36;98429.59;;;13.08;100.00
24666;BME280;29726;53.532;-1.478;2024-02-21T12:21:23;98421.41;;;13.10;100.00
24666;BME280;29726;53.532;-1.478;2024-02-21T12:24:15;98418.84;;;13.12;100.00
24666;BME280;29726;53.532;-1.478;2024-02-21T12:26:59;98405.66;;;13.07;100.00
24666;BME280;29726;53.532;-1.478;2024-02-21T12:29:43;98392.34;;;13.13;100.00
24666;BME280;29726;53.532;-1.478;2024-02-21T12:32:27;98388.34;;;13.08;100.00
24666;BME280;29726;53.532;-1.478;2024-02-21T12:35:11;98386.50;;;13.11;100.00
24666;BME280;29726;53.532;-1.478;2024-02-21T12:37:55;98385.44;;;13.14;100.00
24666;BME280;29726;53.532;-1.478;2024-02-21T12:40:39;98382.88;;;13.16;100.00
24666;BME280;29726;53.532;-1.478;2024-02-21T12:43:23;98367.34;;;13.15;100.00
24666;BME280;29726;53.532;-1.478;2024-02-21T12:46:08;98361.97;;;13.17;100.00
24666;BME280;29726;53.532;-1.478;2024-02-21T12:48:52;98337.50;;;13.17;100.00
24666;BME280;29726;53.532;-1.478;2024-02-21T12:51:36;98315.84;;;13.18;100.00
24666;BME280;29726;53.532;-1.478;2024-02-21T12:54:22;98317.34;;;13.19;100.00
24666;BME280;29726;53.532;-1.478;2024-02-21T12:57:06;98293.44;;;13.18;100.00
24666;BME280;29726;53.532;-1.478;2024-02-21T12:59:50;98290.28;;;13.21;100.00
24666;BME280;29726;53.532;-1.478;2024-02-21T13:02:35;98282.66;;;13.22;100.00
24666;BME280;29726;53.532;-1.478;2024-02-21T13:05:19;98253.91;;;13.08;100.00
24666;BME280;29726;53.532;-1.478;2024-02-21T13:08:03;98263.25;;;13.24;100.00
24666;BME280;29726;53.532;-1.478;2024-02-21T13:10:48;98251.53;;;13.25;100.00
24666;BME280;29726;53.532;-1.478;2024-02-21T13:13:33;98243.13;;;13.25;100.00
24666;BME280;29726;53.532;-1.478;2024-02-21T13:16:17;98225.75;;;13.27;100.00
24666;BME280;29726;53.532;-1.478;2024-02-21T13:19:01;98218.34;;;13.29;100.00
24666;BME280;29726;53.532;-1.478;2024-02-21T13:21:45;98191.41;;;13.26;100.00
24666;BME280;29726;53.532;-1.478;2024-02-21T13:24:30;98178.53;;;13.30;100.00
24666;BME280;29726;53.532;-1.478;2024-02-21T13:27:14;98195.03;;;13.34;100.00
24666;BME280;29726;53.532;-1.478;2024-02-21T13:29:58;98167.03;;;13.34;100.00
24666;BME280;29726;53.532;-1.478;2024-02-21T13:32:44;98165.94;;;13.37;100.00
24666;BME280;29726;53.532;-1.478;2024-02-21T13:35:29;98165.41;;;13.38;100.00
24666;BME280;29726;53.532;-1.478;2024-02-21T13:38:13;98151.59;;;13.40;100.00
24666;BME280;29726;53.532;-1.478;2024-02-21T13:40:58;98149.94;;;13.45;100.00
24666;BME280;29726;53.532;-1.478;2024-02-21T13:43:43;98149.00;;;13.42;100.00
24666;BME280;29726;53.532;-1.478;2024-02-21T13:46:27;98156.94;;;13.51;100.00
24666;BME280;29726;53.532;-1.478;2024-02-21T13:49:11;98155.84;;;13.54;100.00
24666;BME280;29726;53.532;-1.478;2024-02-21T13:51:55;98153.25;;;13.56;100.00
24666;BME280;29726;53.532;-1.478;2024-02-21T13:54:40;98161.13;;;13.58;100.00
24666;BME280;29726;53.532;-1.478;2024-02-21T13:57:25;98157.44;;;13.63;100.00
24666;BME280;29726;53.532;-1.478;2024-02-21T14:00:09;98144.03;;;13.69;100.00
24666;BME280;29726;53.532;-1.478;2024-02-21T14:02:54;98153.41;;;13.71;100.00
24666;BME280;29726;53.532;-1.478;2024-02-21T14:05:38;98149.72;;;13.76;100.00
24666;BME280;29726;53.532;-1.478;2024-02-21T14:08:25;98140.44;;;13.81;100.00
24666;BME280;29726;53.532;-1.478;2024-02-21T14:11:09;98140.28;;;13.87;100.00